Portland Troutdale Airport
KTTD : now visible

Airfield :











YOU CAN JOIN US ON...

 
LOGIN :

Register | Disclaimer

   EN    FR    IT 

 









Legend :    VFR   Marginal VFR   IFR   Intensive IFR   Very Intensive IFR
Visi :
Ceiling :
>= 8 km
>= 3000ft
5 to 8 km
1000 to 3000 ft
1500m to 5 km
500 to 1000 ft
800 to 1500m
200 to 500 ft
< 800m
< 200 ft
Symbols :   Thunderstorms  Fog  Heavy snow  Heavy precipitations  Wind > 20 kt







- Airport Elevation : 39 ft


KTTD - Portland Troutdale

CURRENT METAR :
  • 220053Z VRB04KT 10SM CLR 21/12 A3003 RMK AO2 SLP169 T02110122

EXPIRED METARs :
  • 212353Z 31005KT 10SM CLR 22/12 A3004 RMK AO2 SLP172 T02220117 10228 20172 56020
  • 212253Z 32005KT 10SM CLR 22/11 A3006 RMK AO2 SLP177 T02220111

TAF KTTD
Valid from the 22 at 00:00 until the 23 at 00:00 UTC


212328Z 2200/2224 VRB03KT P6SM SKC
FM221400 20002KT P6SM -DZ OVC050
FM221600 22003KT 4SM -RA HZ OVC050
FM221800 23003KT 4SM -RA HZ BR OVC015
No reported NOTAMs for that airfield.



MET'MAP, your aeronautical weather chart ! - Copyright ORBIFLY December 2007 - Disclaimer

ORBIFLY MET'MAP TEAM :

Programming & Development : Alexandra Zaïnal
Concept & Development : Baudouin d'Aumeries
Co-Development & Prog : Marc-Olivier Méhu
Technical & hardware support : Manuel Goepfert

Contact : metmap@orbifly.com




SOURCES & CREDITS :

   NOAA       Earth
Advisory